Time;durP1;ratioP1;P1;durP2;ratioP2;P2;SDS_P1;SDS_P2;PMS_P1;PMS_P2;Temp;Humidity;BMP_temperature;BMP_pressure;BME280_temperature;BME280_humidity;BME280_pressure;Samples;Min_cycle;Max_cycle;Signal;HPM_P1;HPM_P2
2023/01/29 00:02:04;;;;;;;;;;;8.10;99.90;;;;;;5110750;28;19916;-76
2023/01/29 00:04:30;;;;;;;;;;;8.20;99.90;;;;;;5094118;28;19935;-76
2023/01/29 00:06:55;;;;;;;;;;;8.10;99.90;;;;;;5094680;28;20291;-74
2023/01/29 00:09:22;;;;;;;;;;;8.00;99.90;;;;;;5094615;28;19908;-71
2023/01/29 00:11:48;;;;;;;;;;;8.00;99.90;;;;;;5094423;28;19923;-75
2023/01/29 00:14:14;;;;;;;;;;;8.00;99.90;;;;;;5079710;28;19907;-75
2023/01/29 00:16:40;;;;;;;;;;;7.90;99.90;;;;;;5114775;28;20006;-75
2023/01/29 00:19:07;;;;;;;;;;;7.90;99.90;;;;;;5114731;28;20275;-75
2023/01/29 00:21:33;;;;;;;;;;;7.90;99.90;;;;;;5095954;28;19911;-75
2023/01/29 00:23:59;;;;;;;;;;;7.80;99.90;;;;;;5113788;28;19908;-75
2023/01/29 00:26:26;;;;;;;;;;;7.80;99.90;;;;;;5114272;28;19927;-75
2023/01/29 00:28:52;;;;;;;;;;;7.80;99.90;;;;;;5114230;28;19915;-75
2023/01/29 00:31:19;;;;;;;;;;;7.80;99.90;;;;;;5114723;28;20259;-74
2023/01/29 00:33:45;;;;;;;;;;;7.80;99.90;;;;;;5095735;28;19965;-75
2023/01/29 00:36:12;;;;;;;;;;;7.90;99.90;;;;;;5114172;28;20256;-74
2023/01/29 00:38:38;;;;;;;;;;;7.80;99.90;;;;;;5113962;28;20011;-75
2023/01/29 00:46:36;;;;;;;;;;;7.80;99.90;;;;;;5114293;28;19923;-75
2023/01/29 00:49:02;;;;;;;;;;;7.80;99.90;;;;;;5114038;28;19912;-75
2023/01/29 00:51:28;;;;;;;;;;;7.80;99.90;;;;;;5114042;28;20089;-73
2023/01/29 00:53:57;;;;;;;;;;;7.80;99.90;;;;;;5095578;28;20346;-74
2023/01/29 00:56:23;;;;;;;;;;;7.70;99.90;;;;;;5113729;28;20374;-75
2023/01/29 00:58:49;;;;;;;;;;;7.70;99.90;;;;;;5094996;28;19915;-74
2023/01/29 01:01:15;;;;;;;;;;;7.60;99.90;;;;;;5095428;28;19908;-75
2023/01/29 01:03:41;;;;;;;;;;;7.60;99.90;;;;;;5113787;28;20216;-73
2023/01/29 01:06:09;;;;;;;;;;;7.60;99.90;;;;;;5113257;28;19920;-74
2023/01/29 01:11:21;;;;;;;;;;;7.60;99.90;;;;;;5114330;28;20000;-74
2023/01/29 01:13:46;;;;;;;;;;;7.60;99.90;;;;;;5113462;28;20270;-75
2023/01/29 01:16:13;;;;;;;;;;;7.60;99.90;;;;;;5113361;28;19915;-75
2023/01/29 01:18:39;;;;;;;;;;;7.60;99.90;;;;;;5113354;28;19951;-74
2023/01/29 01:21:05;;;;;;;;;;;7.60;99.90;;;;;;5113454;28;20323;-75
2023/01/29 01:23:31;;;;;;;;;;;7.60;99.90;;;;;;5113532;28;19915;-75
2023/01/29 01:25:57;;;;;;;;;;;7.50;99.90;;;;;;5113164;28;20254;-73
2023/01/29 01:28:22;;;;;;;;;;;7.40;99.90;;;;;;5113091;28;19908;-75
2023/01/29 01:30:50;;;;;;;;;;;7.40;99.90;;;;;;5112840;28;19908;-74
2023/01/29 01:33:16;;;;;;;;;;;7.30;99.90;;;;;;5112822;28;19907;-73
2023/01/29 01:35:41;;;;;;;;;;;7.30;99.90;;;;;;5112871;28;19915;-71
2023/01/29 01:38:07;;;;;;;;;;;7.30;99.90;;;;;;5094460;28;20399;-74
2023/01/29 01:40:33;;;;;;;;;;;7.30;99.90;;;;;;5095007;28;19908;-74
2023/01/29 01:42:59;;;;;;;;;;;7.30;99.90;;;;;;5112684;28;19927;-74
2023/01/29 01:45:31;;;;;;;;;;;7.40;99.90;;;;;;5112628;28;20007;-74
2023/01/29 01:48:11;;;;;;;;;;;7.50;99.90;;;;;;5112881;28;20083;-75
2023/01/29 01:50:37;;;;;;;;;;;7.50;99.90;;;;;;5113024;28;19976;-75
2023/01/29 01:53:07;;;;;;;;;;;7.50;99.90;;;;;;5113181;28;20400;-75
2023/01/29 01:55:35;;;;;;;;;;;7.50;99.90;;;;;;5112802;28;19959;-75
2023/01/29 01:58:27;;;;;;;;;;;7.50;99.90;;;;;;5094130;28;19995;-74
2023/01/29 02:00:53;;;;;;;;;;;7.50;99.90;;;;;;5108596;28;19918;-71
2023/01/29 02:11:54;;;;;;;;;;;7.50;99.90;;;;;;5112726;28;19934;-73
2023/01/29 02:14:21;;;;;;;;;;;7.50;99.90;;;;;;5112062;28;19970;-74
2023/01/29 02:16:46;;;;;;;;;;;7.60;99.90;;;;;;5093766;28;20321;-74
2023/01/29 02:19:18;;;;;;;;;;;7.60;99.90;;;;;;5112665;28;19908;-74
2023/01/29 02:21:44;;;;;;;;;;;7.50;99.90;;;;;;5112540;28;19958;-74
2023/01/29 02:24:22;;;;;;;;;;;7.60;99.90;;;;;;5112235;28;19947;-74
2023/01/29 02:27:09;;;;;;;;;;;7.60;99.90;;;;;;5093866;28;19927;-74
2023/01/29 02:29:47;;;;;;;;;;;7.50;99.90;;;;;;5112200;28;19908;-74
2023/01/29 02:32:19;;;;;;;;;;;7.50;99.90;;;;;;5112502;28;19908;-74
2023/01/29 02:38:04;;;;;;;;;;;7.30;99.90;;;;;;5112089;28;19972;-73
2023/01/29 02:40:42;;;;;;;;;;;7.20;99.90;;;;;;5111565;28;19908;-74
2023/01/29 02:43:15;;;;;;;;;;;6.90;99.90;;;;;;5111810;28;19984;-74
2023/01/29 02:45:51;;;;;;;;;;;6.80;99.90;;;;;;5094150;28;19929;-74
2023/01/29 02:48:19;;;;;;;;;;;6.70;99.90;;;;;;5098190;28;19983;-75
2023/01/29 02:51:04;;;;;;;;;;;6.60;99.90;;;;;;5116196;28;19998;-75
2023/01/29 02:53:37;;;;;;;;;;;6.60;99.90;;;;;;5116599;28;19907;-75
2023/01/29 02:56:09;;;;;;;;;;;6.60;99.90;;;;;;5116147;28;19908;-76
2023/01/29 02:58:41;;;;;;;;;;;6.60;99.90;;;;;;5116323;28;19979;-75
2023/01/29 03:01:30;;;;;;;;;;;6.60;99.90;;;;;;5116770;28;20281;-74
2023/01/29 03:04:08;;;;;;;;;;;6.60;99.90;;;;;;5116244;28;19908;-74
2023/01/29 03:06:41;;;;;;;;;;;6.60;99.90;;;;;;5116403;28;20015;-75
2023/01/29 03:09:09;;;;;;;;;;;6.60;99.90;;;;;;5116112;28;19907;-74
2023/01/29 03:11:39;;;;;;;;;;;6.60;99.90;;;;;;5115859;28;20294;-75
2023/01/29 03:14:09;;;;;;;;;;;6.60;99.90;;;;;;5115787;28;20437;-75
2023/01/29 03:16:38;;;;;;;;;;;6.60;99.90;;;;;;5115690;28;19998;-75
2023/01/29 03:19:13;;;;;;;;;;;6.60;99.90;;;;;;5116081;28;20262;-75
2023/01/29 03:21:50;;;;;;;;;;;6.70;99.90;;;;;;5097134;28;20348;-76
2023/01/29 03:32:44;;;;;;;;;;;6.70;99.90;;;;;;5115648;28;19915;-75
2023/01/29 03:35:12;;;;;;;;;;;6.80;99.90;;;;;;5115289;28;19908;-75
2023/01/29 03:37:40;;;;;;;;;;;6.80;99.90;;;;;;5115450;28;19908;-74
2023/01/29 03:40:07;;;;;;;;;;;6.80;99.90;;;;;;5115292;28;19912;-74
2023/01/29 03:42:45;;;;;;;;;;;6.90;99.90;;;;;;5115598;28;19956;-74
2023/01/29 03:45:17;;;;;;;;;;;6.90;99.90;;;;;;5115180;28;19914;-75
2023/01/29 03:47:43;;;;;;;;;;;7.00;99.90;;;;;;5115148;28;19923;-74
2023/01/29 03:50:08;;;;;;;;;;;7.00;99.90;;;;;;5114985;28;19916;-71
2023/01/29 03:52:39;;;;;;;;;;;7.00;99.90;;;;;;5115097;28;19908;-74
2023/01/29 03:55:11;;;;;;;;;;;7.10;99.90;;;;;;5115123;28;19943;-74
2023/01/29 03:57:44;;;;;;;;;;;7.10;99.90;;;;;;5115547;28;19912;-75
2023/01/29 04:00:17;;;;;;;;;;;7.20;99.90;;;;;;5114991;28;19915;-71
2023/01/29 04:03:01;;;;;;;;;;;7.20;99.90;;;;;;5115437;28;19930;-75
2023/01/29 04:05:29;;;;;;;;;;;7.30;99.90;;;;;;5115089;28;20026;-76
2023/01/29 04:08:00;;;;;;;;;;;7.30;99.90;;;;;;5114900;28;20417;-75
2023/01/29 04:10:26;;;;;;;;;;;7.30;99.90;;;;;;5114525;28;19907;-75
2023/01/29 04:13:00;;;;;;;;;;;7.50;99.90;;;;;;5115158;28;19945;-71
2023/01/29 04:15:28;;;;;;;;;;;7.50;99.90;;;;;;5114499;28;19962;-75
2023/01/29 04:17:55;;;;;;;;;;;7.40;99.90;;;;;;5114671;28;19920;-75
2023/01/29 04:20:21;;;;;;;;;;;7.30;99.90;;;;;;5114725;28;20269;-74
2023/01/29 04:22:48;;;;;;;;;;;7.30;99.90;;;;;;5114594;28;19908;-76
2023/01/29 04:25:28;;;;;;;;;;;7.30;99.90;;;;;;5114518;28;19915;-72
2023/01/29 04:28:04;;;;;;;;;;;7.20;99.90;;;;;;5114305;28;19983;-75
2023/01/29 04:30:48;;;;;;;;;;;7.20;99.90;;;;;;5114446;28;20012;-76
2023/01/29 04:33:16;;;;;;;;;;;7.10;99.90;;;;;;5114001;28;19908;-74
2023/01/29 04:36:04;;;;;;;;;;;7.10;99.90;;;;;;5114477;28;19958;-74
2023/01/29 04:38:36;;;;;;;;;;;7.00;99.90;;;;;;5114063;28;19908;-74
2023/01/29 04:41:08;;;;;;;;;;;7.10;99.90;;;;;;5114481;28;20311;-74
2023/01/29 04:43:37;;;;;;;;;;;7.00;99.90;;;;;;5114001;28;19908;-72
2023/01/29 04:46:12;;;;;;;;;;;7.00;99.90;;;;;;5113963;28;20312;-75
2023/01/29 04:48:47;;;;;;;;;;;6.90;99.90;;;;;;5114028;28;20480;-75
2023/01/29 04:51:16;;;;;;;;;;;6.90;99.90;;;;;;5113455;28;19984;-74
2023/01/29 04:53:53;;;;;;;;;;;6.90;99.90;;;;;;5095268;28;20259;-72
2023/01/29 04:56:29;;;;;;;;;;;6.90;99.90;;;;;;5095423;28;20076;-74
2023/01/29 04:58:58;;;;;;;;;;;6.90;99.90;;;;;;5113825;28;19931;-75
2023/01/29 05:01:27;;;;;;;;;;;6.90;99.90;;;;;;5113964;28;20011;-75
2023/01/29 05:03:54;;;;;;;;;;;6.90;99.90;;;;;;5113854;28;19965;-74
2023/01/29 05:06:20;;;;;;;;;;;7.00;99.90;;;;;;5113261;28;19923;-75
2023/01/29 05:08:46;;;;;;;;;;;7.00;99.90;;;;;;5113071;28;19974;-75
2023/01/29 05:11:13;;;;;;;;;;;7.00;99.90;;;;;;5113716;28;19907;-74
2023/01/29 05:13:39;;;;;;;;;;;7.00;99.90;;;;;;5113560;28;19970;-74
2023/01/29 05:16:05;;;;;;;;;;;7.00;99.90;;;;;;5113398;28;19914;-75
2023/01/29 05:18:31;;;;;;;;;;;7.10;99.90;;;;;;5113734;28;20010;-73
2023/01/29 05:20:58;;;;;;;;;;;7.10;99.90;;;;;;5113454;28;19915;-74
2023/01/29 05:23:23;;;;;;;;;;;7.00;99.90;;;;;;5113372;28;20006;-74
2023/01/29 05:25:50;;;;;;;;;;;6.90;99.90;;;;;;5113664;28;20308;-74
2023/01/29 05:28:16;;;;;;;;;;;6.80;99.90;;;;;;5113556;28;19969;-74
2023/01/29 05:30:44;;;;;;;;;;;6.80;99.90;;;;;;5113543;28;20336;-73
2023/01/29 05:33:12;;;;;;;;;;;6.80;99.90;;;;;;5113324;28;20002;-74
2023/01/29 05:35:38;;;;;;;;;;;6.70;99.90;;;;;;5094659;28;19908;-74
2023/01/29 05:38:03;;;;;;;;;;;6.70;99.90;;;;;;5113271;28;19965;-74
2023/01/29 05:40:29;;;;;;;;;;;6.70;99.90;;;;;;5113093;28;19976;-74
2023/01/29 05:42:55;;;;;;;;;;;6.70;99.90;;;;;;5113561;28;20014;-74
2023/01/29 05:45:21;;;;;;;;;;;6.70;99.90;;;;;;5112826;28;20282;-74
2023/01/29 05:47:47;;;;;;;;;;;6.80;99.90;;;;;;5113166;28;19922;-74
2023/01/29 05:50:13;;;;;;;;;;;6.90;99.90;;;;;;5113189;28;20307;-74
2023/01/29 05:52:39;;;;;;;;;;;7.00;99.90;;;;;;5112945;28;19919;-74
2023/01/29 05:55:05;;;;;;;;;;;7.10;99.90;;;;;;5113195;28;20049;-75
2023/01/29 05:57:31;;;;;;;;;;;7.00;99.90;;;;;;5113256;28;19915;-74
2023/01/29 05:59:57;;;;;;;;;;;6.90;99.90;;;;;;5113013;28;20019;-74
2023/01/29 06:02:22;;;;;;;;;;;6.90;99.90;;;;;;5113303;28;19908;-74
2023/01/29 06:04:50;;;;;;;;;;;6.90;99.90;;;;;;5112747;28;20003;-74
2023/01/29 06:07:16;;;;;;;;;;;6.90;99.90;;;;;;5112683;28;19927;-74
2023/01/29 06:09:41;;;;;;;;;;;7.00;99.90;;;;;;5112713;28;19977;-71
2023/01/29 06:12:07;;;;;;;;;;;7.10;99.90;;;;;;5112538;28;19966;-75
2023/01/29 06:14:33;;;;;;;;;;;7.20;99.90;;;;;;5112688;28;20408;-75
2023/01/29 06:16:59;;;;;;;;;;;7.20;99.90;;;;;;5112393;28;19959;-74
2023/01/29 06:19:25;;;;;;;;;;;7.20;99.90;;;;;;5104898;28;19923;-74
2023/01/29 06:21:50;;;;;;;;;;;7.10;99.90;;;;;;5086574;28;20358;-74
2023/01/29 06:24:16;;;;;;;;;;;7.00;99.90;;;;;;5092188;28;19919;-75
2023/01/29 06:26:42;;;;;;;;;;;6.90;99.90;;;;;;5092087;28;19968;-69
2023/01/29 06:29:08;;;;;;;;;;;6.90;99.90;;;;;;5089847;28;20368;-75
2023/01/29 06:31:33;;;;;;;;;;;6.90;99.90;;;;;;5084475;28;19915;-75
2023/01/29 06:33:59;;;;;;;;;;;7.10;99.90;;;;;;5092190;28;20318;-73
2023/01/29 06:36:25;;;;;;;;;;;7.60;99.90;;;;;;5092511;28;19914;-73
2023/01/29 06:38:51;;;;;;;;;;;8.10;99.90;;;;;;5091973;28;19954;-75
2023/01/29 06:41:17;;;;;;;;;;;8.40;99.90;;;;;;5092029;28;19954;-76
2023/01/29 06:43:44;;;;;;;;;;;8.60;99.90;;;;;;5091677;28;19915;-74
2023/01/29 06:46:10;;;;;;;;;;;8.60;99.90;;;;;;5111921;28;19969;-74
2023/01/29 06:48:36;;;;;;;;;;;8.80;99.90;;;;;;5112086;28;19919;-73
2023/01/29 06:51:02;;;;;;;;;;;8.90;99.90;;;;;;5093682;28;20300;-75
2023/01/29 06:53:28;;;;;;;;;;;9.10;99.90;;;;;;5112626;28;20207;-75
2023/01/29 06:55:54;;;;;;;;;;;9.40;99.90;;;;;;5112423;28;19914;-75
2023/01/29 06:58:21;;;;;;;;;;;9.90;99.90;;;;;;5112199;28;19908;-74
2023/01/29 07:00:47;;;;;;;;;;;10.20;99.90;;;;;;5093512;28;19962;-75
2023/01/29 07:03:13;;;;;;;;;;;10.50;99.90;;;;;;5111827;28;19908;-74
2023/01/29 07:05:38;;;;;;;;;;;10.70;99.90;;;;;;5111668;28;19927;-76
2023/01/29 07:08:04;;;;;;;;;;;10.60;99.90;;;;;;5111661;28;19923;-75
2023/01/29 07:10:30;;;;;;;;;;;10.40;99.90;;;;;;5112031;28;19907;-75
2023/01/29 07:12:57;;;;;;;;;;;10.60;99.90;;;;;;5111932;28;19914;-74
2023/01/29 07:15:23;;;;;;;;;;;10.80;99.90;;;;;;5111569;28;19914;-74
2023/01/29 07:17:56;;;;;;;;;;;11.00;99.90;;;;;;5112765;28;19912;-73
2023/01/29 07:20:22;;;;;;;;;;;11.00;99.90;;;;;;5112397;28;19958;-75
2023/01/29 07:22:48;;;;;;;;;;;11.10;99.90;;;;;;5112543;28;20361;-75
2023/01/29 07:25:14;;;;;;;;;;;11.10;99.90;;;;;;5112646;28;19947;-72
2023/01/29 07:27:39;;;;;;;;;;;10.90;99.90;;;;;;5093933;28;20014;-74
2023/01/29 07:30:06;;;;;;;;;;;11.20;99.90;;;;;;5112394;28;20363;-78
2023/01/29 07:32:31;;;;;;;;;;;11.80;99.90;;;;;;5114891;28;20332;-72
2023/01/29 07:34:57;;;;;;;;;;;11.70;99.90;;;;;;5116239;28;19914;-80
2023/01/29 07:37:23;;;;;;;;;;;11.60;99.90;;;;;;5097737;28;19937;-80
2023/01/29 07:39:49;;;;;;;;;;;12.10;99.90;;;;;;5116663;28;20275;-78
2023/01/29 07:42:14;;;;;;;;;;;11.60;99.90;;;;;;5116225;28;19908;-77
2023/01/29 07:44:40;;;;;;;;;;;11.20;99.90;;;;;;5116163;28;19908;-78
2023/01/29 07:47:06;;;;;;;;;;;11.20;99.90;;;;;;5116088;28;19916;-80
2023/01/29 07:49:32;;;;;;;;;;;11.70;99.90;;;;;;5115945;28;19908;-80
2023/01/29 07:51:58;;;;;;;;;;;11.80;99.90;;;;;;5116473;28;19923;-84
2023/01/29 07:54:23;;;;;;;;;;;12.30;99.90;;;;;;5116031;28;19922;-90
2023/01/29 07:56:49;;;;;;;;;;;12.70;99.90;;;;;;5097780;28;19912;-83
2023/01/29 07:59:16;;;;;;;;;;;12.40;99.90;;;;;;5115648;28;19915;-80
2023/01/29 08:01:41;;;;;;;;;;;11.80;99.90;;;;;;5115214;28;19958;-75
2023/01/29 08:04:13;;;;;;;;;;;11.40;99.90;;;;;;5115528;28;19908;-80
2023/01/29 08:06:39;;;;;;;;;;;11.10;99.90;;;;;;5115081;28;20447;-77
2023/01/29 08:09:06;;;;;;;;;;;10.80;99.90;;;;;;5097143;28;19954;-77
2023/01/29 08:11:32;;;;;;;;;;;10.80;99.90;;;;;;5115219;28;20015;-77
2023/01/29 08:13:57;;;;;;;;;;;11.10;99.90;;;;;;5100470;28;19998;-75
2023/01/29 08:16:23;;;;;;;;;;;11.20;99.90;;;;;;5115421;28;19912;-76
2023/01/29 08:18:49;;;;;;;;;;;11.10;99.90;;;;;;5095961;28;19912;-76
2023/01/29 08:21:15;;;;;;;;;;;11.30;99.90;;;;;;5094606;28;19969;-76
2023/01/29 08:23:41;;;;;;;;;;;11.40;99.90;;;;;;5095054;28;19914;-76
2023/01/29 08:26:07;;;;;;;;;;;11.30;99.90;;;;;;5094523;28;19909;-76
2023/01/29 08:28:34;;;;;;;;;;;11.10;99.90;;;;;;5075903;28;19909;-76
2023/01/29 08:31:00;;;;;;;;;;;11.10;99.90;;;;;;5094497;28;20045;-76
2023/01/29 08:33:27;;;;;;;;;;;11.00;99.90;;;;;;5094874;28;20202;-76
2023/01/29 08:35:53;;;;;;;;;;;11.10;99.90;;;;;;5076093;28;19909;-76
2023/01/29 08:38:19;;;;;;;;;;;11.10;99.90;;;;;;5094484;28;19912;-76
2023/01/29 08:40:45;;;;;;;;;;;11.10;99.90;;;;;;5076278;28;20278;-77
2023/01/29 08:43:12;;;;;;;;;;;11.10;99.90;;;;;;5093625;28;19912;-75
2023/01/29 08:45:40;;;;;;;;;;;11.10;99.90;;;;;;5078436;28;19931;-78
2023/01/29 08:48:06;;;;;;;;;;;11.00;99.90;;;;;;5073930;28;19917;-76
2023/01/29 08:50:33;;;;;;;;;;;11.10;99.90;;;;;;5073804;28;19943;-75
2023/01/29 08:53:02;;;;;;;;;;;11.10;99.90;;;;;;5073578;28;19977;-76
2023/01/29 08:55:28;;;;;;;;;;;11.00;99.90;;;;;;5073929;28;20377;-75
2023/01/29 08:57:56;;;;;;;;;;;11.10;99.90;;;;;;5074056;28;19972;-78
2023/01/29 09:00:21;;;;;;;;;;;11.20;99.90;;;;;;5073415;28;20314;-76
2023/01/29 09:02:48;;;;;;;;;;;11.40;99.90;;;;;;5073329;28;19916;-76
2023/01/29 09:05:14;;;;;;;;;;;11.40;99.90;;;;;;5073344;28;20047;-76
2023/01/29 09:07:40;;;;;;;;;;;11.60;99.90;;;;;;5073148;28;19920;-75
2023/01/29 09:10:06;;;;;;;;;;;11.70;99.90;;;;;;5090934;28;19956;-76
2023/01/29 09:12:32;;;;;;;;;;;11.90;99.90;;;;;;5093830;28;19908;-76
2023/01/29 09:14:58;;;;;;;;;;;12.10;99.90;;;;;;5102795;28;19914;-76
2023/01/29 09:17:24;;;;;;;;;;;12.10;99.90;;;;;;5113549;28;19964;-76
2023/01/29 09:19:51;;;;;;;;;;;12.10;99.90;;;;;;5114412;28;20320;-76
2023/01/29 09:22:18;;;;;;;;;;;12.30;99.90;;;;;;5114233;28;19943;-75
2023/01/29 09:24:44;;;;;;;;;;;12.50;99.90;;;;;;5095532;28;19998;-75
2023/01/29 09:27:09;;;;;;;;;;;12.50;99.90;;;;;;5113914;28;19958;-76
2023/01/29 09:29:36;;;;;;;;;;;12.70;99.90;;;;;;5113389;28;19907;-76
2023/01/29 09:32:04;;;;;;;;;;;12.80;99.90;;;;;;5113788;28;19908;-76
2023/01/29 09:34:30;;;;;;;;;;;13.00;99.90;;;;;;5114148;28;20025;-75
2023/01/29 09:36:57;;;;;;;;;;;13.30;99.90;;;;;;5113628;28;20343;-76
2023/01/29 09:39:23;;;;;;;;;;;13.50;99.90;;;;;;5114160;28;19908;-76
2023/01/29 09:41:57;;;;;;;;;;;13.20;99.90;;;;;;5113888;28;19915;-76
2023/01/29 09:44:46;;;;;;;;;;;13.30;99.90;;;;;;5113581;28;19931;-76
2023/01/29 09:47:14;;;;;;;;;;;13.60;99.90;;;;;;5113736;28;19916;-75
2023/01/29 09:49:42;;;;;;;;;;;13.40;99.90;;;;;;5112955;28;19916;-76
2023/01/29 09:52:19;;;;;;;;;;;13.40;99.90;;;;;;5112908;28;20337;-74
2023/01/29 09:54:48;;;;;;;;;;;13.60;99.90;;;;;;5112715;28;19908;-76
2023/01/29 09:57:18;;;;;;;;;;;13.50;99.90;;;;;;5113171;28;19908;-75
2023/01/29 09:59:44;;;;;;;;;;;13.80;99.90;;;;;;5094422;28;20308;-76
2023/01/29 10:02:30;;;;;;;;;;;14.10;99.90;;;;;;5113486;28;19922;-76
2023/01/29 10:05:01;;;;;;;;;;;14.30;99.90;;;;;;5098313;28;20065;-77
2023/01/29 10:07:39;;;;;;;;;;;14.70;99.90;;;;;;5112905;28;19920;-77
2023/01/29 10:10:06;;;;;;;;;;;14.50;99.90;;;;;;5094425;28;19961;-79
2023/01/29 10:12:32;;;;;;;;;;;14.30;99.90;;;;;;5112823;28;20283;-80
2023/01/29 10:15:13;;;;;;;;;;;14.40;99.90;;;;;;5112912;28;19914;-77
2023/01/29 10:17:47;;;;;;;;;;;14.70;99.90;;;;;;5113259;28;19998;-79
2023/01/29 10:20:31;;;;;;;;;;;15.00;99.90;;;;;;5113113;28;20356;-79
2023/01/29 10:23:16;;;;;;;;;;;15.20;99.90;;;;;;5109842;28;19920;-73
2023/01/29 10:25:44;;;;;;;;;;;15.30;99.90;;;;;;5090708;28;20440;-76
2023/01/29 10:28:21;;;;;;;;;;;15.00;99.90;;;;;;5072894;28;19920;-79
2023/01/29 10:30:49;;;;;;;;;;;14.90;99.90;;;;;;5093168;28;19931;-79
2023/01/29 10:33:24;;;;;;;;;;;15.10;99.90;;;;;;5092375;28;19908;-78
2023/01/29 10:35:54;;;;;;;;;;;15.30;99.90;;;;;;5092908;28;20324;-78
2023/01/29 10:38:29;;;;;;;;;;;15.50;99.90;;;;;;5092358;28;20008;-78
2023/01/29 10:41:15;;;;;;;;;;;15.50;99.90;;;;;;5092482;28;19944;-78
2023/01/29 10:43:56;;;;;;;;;;;15.30;99.90;;;;;;5091678;28;19911;-79
2023/01/29 10:46:40;;;;;;;;;;;15.30;99.90;;;;;;5092572;28;19920;-80
2023/01/29 10:49:26;;;;;;;;;;;15.50;99.90;;;;;;5092327;28;20010;-79
2023/01/29 10:51:52;;;;;;;;;;;15.70;99.90;;;;;;5092225;28;19911;-79
2023/01/29 10:54:26;;;;;;;;;;;15.60;99.90;;;;;;5092352;28;20427;-78
2023/01/29 10:57:02;;;;;;;;;;;15.80;99.90;;;;;;5092459;28;19999;-79
2023/01/29 10:59:45;;;;;;;;;;;15.80;99.90;;;;;;5091695;28;19908;-78
2023/01/29 11:02:17;;;;;;;;;;;16.00;99.90;;;;;;5092084;28;19987;-78
2023/01/29 11:04:42;;;;;;;;;;;16.10;99.90;;;;;;5092112;28;19991;-77
2023/01/29 11:07:09;;;;;;;;;;;16.10;99.90;;;;;;5093707;28;20400;-78
2023/01/29 11:09:38;;;;;;;;;;;16.10;99.90;;;;;;5077318;28;19908;-78
2023/01/29 11:12:13;;;;;;;;;;;16.20;99.90;;;;;;5096163;28;20297;-78
2023/01/29 11:14:38;;;;;;;;;;;16.10;99.90;;;;;;5095772;28;20310;-78
2023/01/29 11:17:04;;;;;;;;;;;16.00;99.90;;;;;;5077573;28;19915;-77
2023/01/29 11:19:40;;;;;;;;;;;15.90;99.90;;;;;;5096056;28;20312;-77
2023/01/29 11:22:16;;;;;;;;;;;16.00;99.90;;;;;;5096524;28;19908;-78
2023/01/29 11:24:44;;;;;;;;;;;16.10;99.90;;;;;;5096042;28;19962;-72
2023/01/29 11:27:15;;;;;;;;;;;16.20;99.90;;;;;;5096342;28;20325;-78
2023/01/29 11:29:44;;;;;;;;;;;16.10;99.90;;;;;;5090905;28;19917;-77
2023/01/29 11:32:31;;;;;;;;;;;16.10;99.90;;;;;;5093010;28;19934;-80
2023/01/29 11:35:01;;;;;;;;;;;16.00;99.90;;;;;;5096145;28;19908;-77
2023/01/29 11:37:34;;;;;;;;;;;16.10;99.90;;;;;;5095568;28;20420;-77
2023/01/29 11:40:01;;;;;;;;;;;16.00;99.90;;;;;;5096463;28;19912;-78
2023/01/29 11:42:30;;;;;;;;;;;16.00;99.90;;;;;;5095634;28;19914;-77
2023/01/29 11:44:56;;;;;;;;;;;15.80;99.90;;;;;;5095798;28;19908;-73
2023/01/29 11:47:25;;;;;;;;;;;16.00;99.90;;;;;;5077290;28;19983;-77
2023/01/29 11:49:53;;;;;;;;;;;16.00;99.90;;;;;;5095540;28;19954;-77
2023/01/29 11:52:26;;;;;;;;;;;15.90;99.90;;;;;;5085783;28;19915;-78
2023/01/29 11:54:54;;;;;;;;;;;15.90;99.90;;;;;;5085562;28;20013;-76
2023/01/29 11:57:23;;;;;;;;;;;16.10;99.90;;;;;;5077553;28;19909;-77
2023/01/29 11:59:50;;;;;;;;;;;16.00;99.90;;;;;;5057276;28;20268;-77
2023/01/29 12:02:16;;;;;;;;;;;16.00;99.90;;;;;;5075030;28;19916;-77
2023/01/29 12:04:41;;;;;;;;;;;16.30;99.90;;;;;;5074743;28;19908;-74
2023/01/29 12:07:12;;;;;;;;;;;16.30;99.90;;;;;;5075399;28;19956;-78
2023/01/29 12:09:38;;;;;;;;;;;16.00;99.90;;;;;;5057512;28;20276;-77
2023/01/29 12:12:38;;;;;;;;;;;16.10;99.90;;;;;;5075173;28;19954;-77
2023/01/29 12:15:06;;;;;;;;;;;15.90;99.90;;;;;;5043042;28;20355;-76
2023/01/29 12:17:35;;;;;;;;;;;15.50;99.90;;;;;;5052800;28;19917;-76
2023/01/29 12:20:21;;;;;;;;;;;15.60;99.90;;;;;;5051645;28;20035;-74
2023/01/29 12:22:50;;;;;;;;;;;15.50;99.90;;;;;;5053002;28;19916;-77
2023/01/29 12:25:33;;;;;;;;;;;15.60;99.90;;;;;;5035930;28;20315;-77
2023/01/29 12:28:01;;;;;;;;;;;15.80;99.90;;;;;;5035564;28;19921;-77
2023/01/29 12:30:48;;;;;;;;;;;15.90;99.90;;;;;;5052135;28;19984;-78
2023/01/29 12:33:33;;;;;;;;;;;15.90;99.90;;;;;;5035721;28;19909;-78
2023/01/29 12:36:04;;;;;;;;;;;16.20;99.90;;;;;;5052759;28;20377;-77
2023/01/29 12:38:30;;;;;;;;;;;16.00;99.90;;;;;;5052489;28;20406;-77
2023/01/29 12:41:04;;;;;;;;;;;16.20;99.90;;;;;;5052734;28;19948;-77
2023/01/29 12:43:30;;;;;;;;;;;16.10;99.90;;;;;;5052380;28;20004;-77
2023/01/29 12:45:57;;;;;;;;;;;16.20;99.90;;;;;;5035241;28;19908;-77
2023/01/29 12:48:27;;;;;;;;;;;16.20;99.90;;;;;;5052084;28;20403;-76
2023/01/29 12:50:54;;;;;;;;;;;16.30;99.90;;;;;;5078539;28;19948;-77
2023/01/29 12:53:53;;;;;;;;;;;16.30;99.90;;;;;;5076155;28;19919;-76
2023/01/29 12:56:27;;;;;;;;;;;16.50;99.90;;;;;;5015538;28;20120;-76
2023/01/29 12:58:54;;;;;;;;;;;16.00;99.90;;;;;;5032175;28;20289;-77
2023/01/29 13:01:28;;;;;;;;;;;16.00;99.90;;;;;;5031831;28;19909;-77
2023/01/29 13:03:59;;;;;;;;;;;16.10;99.90;;;;;;5015311;28;19968;-76
2023/01/29 13:06:27;;;;;;;;;;;16.20;99.90;;;;;;5031898;28;19928;-75
2023/01/29 13:08:56;;;;;;;;;;;16.10;99.90;;;;;;5032280;28;19918;-77
2023/01/29 13:11:34;;;;;;;;;;;15.60;99.90;;;;;;5031903;28;19963;-77
2023/01/29 13:14:03;;;;;;;;;;;15.70;99.90;;;;;;5032018;28;19909;-77
2023/01/29 13:16:40;;;;;;;;;;;15.60;99.90;;;;;;5031575;28;19965;-77
2023/01/29 13:19:27;;;;;;;;;;;15.80;99.90;;;;;;5032149;28;19909;-77
2023/01/29 13:21:54;;;;;;;;;;;15.70;99.90;;;;;;5031718;28;20360;-76
2023/01/29 13:24:22;;;;;;;;;;;15.90;99.90;;;;;;5031933;28;20396;-78
2023/01/29 13:26:48;;;;;;;;;;;15.90;99.90;;;;;;5031396;28;19917;-77
2023/01/29 13:29:24;;;;;;;;;;;16.10;99.90;;;;;;5031051;28;19916;-78
2023/01/29 13:32:09;;;;;;;;;;;16.30;99.90;;;;;;5041028;28;20310;-77
2023/01/29 13:34:45;;;;;;;;;;;16.00;99.90;;;;;;5073571;28;19928;-77
2023/01/29 13:37:16;;;;;;;;;;;16.00;99.90;;;;;;5071731;28;19909;-77
2023/01/29 13:39:50;;;;;;;;;;;15.90;99.90;;;;;;5073667;28;19996;-76
2023/01/29 13:42:19;;;;;;;;;;;15.70;99.90;;;;;;5073155;28;19908;-77
2023/01/29 13:44:53;;;;;;;;;;;15.70;99.90;;;;;;5081337;28;19908;-76
2023/01/29 13:47:32;;;;;;;;;;;15.70;99.90;;;;;;5093262;28;19993;-77
2023/01/29 13:50:07;;;;;;;;;;;15.90;99.90;;;;;;5093655;28;20271;-76
2023/01/29 13:52:33;;;;;;;;;;;16.10;99.90;;;;;;5093356;28;19915;-77
2023/01/29 13:55:08;;;;;;;;;;;16.20;99.90;;;;;;5093193;28;20567;-77
2023/01/29 13:57:42;;;;;;;;;;;16.20;99.90;;;;;;5093246;28;20352;-77
2023/01/29 14:00:29;;;;;;;;;;;16.30;99.90;;;;;;5093397;28;19908;-76
2023/01/29 14:02:55;;;;;;;;;;;16.30;99.90;;;;;;5089474;28;19908;-77
2023/01/29 14:05:30;;;;;;;;;;;16.30;99.90;;;;;;5099397;28;19923;-76
2023/01/29 14:07:59;;;;;;;;;;;16.10;99.90;;;;;;5112605;28;21393;-77
2023/01/29 14:10:29;;;;;;;;;;;16.20;99.90;;;;;;5113369;28;19964;-76
2023/01/29 14:13:10;;;;;;;;;;;16.10;99.90;;;;;;5094704;28;19908;-77
2023/01/29 14:15:38;;;;;;;;;;;16.00;99.90;;;;;;5112970;28;20333;-77
2023/01/29 14:18:10;;;;;;;;;;;15.80;99.90;;;;;;5094873;28;20017;-78
2023/01/29 14:20:40;;;;;;;;;;;16.00;99.90;;;;;;5113894;28;19908;-77
2023/01/29 14:23:06;;;;;;;;;;;16.10;99.90;;;;;;5113103;28;19919;-77
2023/01/29 14:25:35;;;;;;;;;;;16.00;99.90;;;;;;5113370;28;19908;-76
2023/01/29 14:28:02;;;;;;;;;;;15.70;99.90;;;;;;5094781;28;20319;-76
2023/01/29 14:30:33;;;;;;;;;;;15.80;99.90;;;;;;5113095;28;19908;-77
2023/01/29 14:33:00;;;;;;;;;;;15.90;99.90;;;;;;5113160;28;19912;-74
2023/01/29 14:35:32;;;;;;;;;;;16.10;99.90;;;;;;5101563;28;19961;-77
2023/01/29 14:37:59;;;;;;;;;;;16.10;99.90;;;;;;5092253;28;20257;-76
2023/01/29 14:40:28;;;;;;;;;;;16.10;99.90;;;;;;5091915;28;19952;-75
2023/01/29 14:42:57;;;;;;;;;;;16.00;99.90;;;;;;5089655;28;19908;-76
2023/01/29 14:45:24;;;;;;;;;;;16.00;99.90;;;;;;5092195;28;19998;-76
2023/01/29 14:47:52;;;;;;;;;;;15.90;99.90;;;;;;5090693;28;19916;-76
2023/01/29 14:50:18;;;;;;;;;;;16.10;99.90;;;;;;5091070;28;19908;-77
2023/01/29 14:52:45;;;;;;;;;;;16.00;99.90;;;;;;5090630;28;20267;-76
2023/01/29 14:55:17;;;;;;;;;;;16.00;99.90;;;;;;5090448;28;19977;-76
2023/01/29 14:57:44;;;;;;;;;;;16.00;99.90;;;;;;5090874;28;19916;-75
2023/01/29 15:00:29;;;;;;;;;;;15.80;99.90;;;;;;5090994;28;19931;-78
2023/01/29 15:02:56;;;;;;;;;;;15.70;99.90;;;;;;5088981;28;19915;-78
2023/01/29 15:05:29;;;;;;;;;;;15.70;99.90;;;;;;5090287;28;20321;-74
2023/01/29 15:08:14;;;;;;;;;;;15.70;99.90;;;;;;5088829;28;20420;-77